Jim Hamilton L.B. Owens Airport Columbia US
ICAO: KCUB
IATA: CUB
Category: Medium
Scheduled Services: No

Elevation: 193 ft
TransAlt. 18000 ft.

Airport Communications:
APP/DEP:133.4
ASOS:119.675
CLNC DEL:124.4
MIL OPS:122.8
ANDERSON RDO:114.7
CTAF/UNICOM:122.8

KCUB Zoom In..

Runways:

(A) RW 13 length 5011 ft width 75 ft
LOC 110.90 / hdg 131

(B) RW 31 length 5011 ft width 75 ft
LOC 110.90 / hdg 311

Location; KCUB
Day. 20 / Time. 19.53 Zulu
* Altimeter: 29.94
* Temperature: 29° c. 84.2°f.
* Wind from: 060° Speed 05 kn.
Dewpoint: 19° c.
Visibility: 10 Statute Miles.
Clouds: Few 3500 ft.
Clouds: Scattered 4800 ft.
Clouds: Broken 7000 ft.

KCUB 201953Z AUTO 06005KT 10SM FEW035 SCT048 BKN070 29/19 A2994 RMK AO2 SLP136 T02940194


Wind From 060°
Speed 05 kn.

 
 
jpsmedia.com for Web Design worldairports.se 2018   terms of use